createdAt,value
2023-04-24T00:01:35.091Z,88.90
2023-04-24T00:04:02.757Z,88.70
2023-04-24T00:06:35.482Z,88.80
2023-04-24T00:09:02.235Z,89.10
2023-04-24T00:11:29.090Z,88.90
2023-04-24T00:13:57.408Z,88.80
2023-04-24T00:16:24.580Z,88.10
2023-04-24T00:18:53.588Z,86.80
2023-04-24T00:21:20.426Z,87.10
2023-04-24T00:23:48.100Z,86.80
2023-04-24T00:26:14.844Z,87.50
2023-04-24T00:28:41.436Z,87.40
2023-04-24T00:31:08.228Z,87.40
2023-04-24T00:33:34.880Z,87.50
2023-04-24T00:36:01.559Z,87.80
2023-04-24T00:38:28.199Z,88.40
2023-04-24T00:40:55.501Z,88.10
2023-04-24T00:43:22.145Z,88.60
2023-04-24T00:45:48.949Z,88.90
2023-04-24T00:48:16.009Z,89.30
2023-04-24T00:50:43.148Z,89.70
2023-04-24T00:53:09.861Z,90.20
2023-04-24T00:55:38.293Z,90.40
2023-04-24T00:58:05.784Z,90.80
2023-04-24T01:00:32.748Z,90.80
2023-04-24T01:03:02.945Z,90.40
2023-04-24T01:05:29.739Z,90.60
2023-04-24T01:07:57.172Z,90.60
2023-04-24T01:10:25.193Z,90.90
2023-04-24T01:12:52.701Z,90.90
2023-04-24T01:15:19.434Z,91.00
2023-04-24T01:17:46.207Z,91.20
2023-04-24T01:20:13.398Z,91.00
2023-04-24T01:22:40.147Z,91.10
2023-04-24T01:25:07.255Z,91.10
2023-04-24T01:27:33.955Z,91.40
2023-04-24T01:30:00.707Z,91.70
2023-04-24T01:32:27.691Z,91.70
2023-04-24T01:34:54.986Z,91.90
2023-04-24T01:37:21.791Z,91.80
2023-04-24T01:39:48.510Z,91.80
2023-04-24T01:42:15.832Z,92.00
2023-04-24T01:44:43.214Z,92.10
2023-04-24T01:47:09.996Z,92.10
2023-04-24T01:49:37.877Z,91.90
2023-04-24T01:52:04.737Z,92.00
2023-04-24T01:54:31.461Z,91.80
2023-04-24T01:56:58.596Z,92.00
2023-04-24T01:59:26.949Z,92.80
2023-04-24T02:01:53.569Z,92.30
2023-04-24T02:04:20.619Z,93.00
2023-04-24T02:06:47.368Z,92.30
2023-04-24T02:09:14.012Z,92.20
2023-04-24T02:11:40.707Z,92.40
2023-04-24T02:14:07.348Z,92.30
2023-04-24T02:16:34.796Z,92.20
2023-04-24T02:19:01.501Z,92.40
2023-04-24T02:21:28.882Z,92.40
2023-04-24T02:23:55.919Z,92.40
2023-04-24T02:26:22.529Z,92.20
2023-04-24T02:28:49.488Z,91.90
2023-04-24T02:31:16.153Z,91.50
2023-04-24T02:33:42.880Z,92.40
2023-04-24T02:36:09.559Z,91.50
2023-04-24T02:38:36.211Z,91.40
2023-04-24T02:41:05.161Z,91.30
2023-04-24T02:43:31.800Z,91.30
2023-04-24T02:45:58.457Z,90.90
2023-04-24T02:48:25.161Z,90.60
2023-04-24T02:50:52.376Z,90.10
2023-04-24T02:53:19.076Z,89.80
2023-04-24T02:55:46.933Z,90.00
2023-04-24T02:58:14.058Z,90.10
2023-04-24T03:00:41.030Z,89.60
2023-04-24T03:03:08.242Z,89.50
2023-04-24T03:05:35.075Z,89.90
2023-04-24T03:08:01.741Z,89.90
2023-04-24T03:10:28.430Z,89.90
2023-04-24T03:12:56.040Z,90.00
2023-04-24T03:15:23.050Z,89.90
2023-04-24T03:17:49.762Z,89.40
2023-04-24T03:20:16.834Z,89.70
2023-04-24T03:22:43.502Z,89.80
2023-04-24T03:25:10.554Z,89.80
2023-04-24T03:27:38.232Z,89.60
2023-04-24T03:30:05.320Z,90.20
2023-04-24T03:32:33.225Z,90.20
2023-04-24T03:35:00.077Z,89.80
2023-04-24T03:37:27.428Z,90.20
2023-04-24T03:39:54.007Z,90.30
2023-04-24T03:42:20.655Z,90.50
2023-04-24T03:44:47.247Z,91.00
2023-04-24T03:47:13.867Z,91.10
2023-04-24T03:49:40.674Z,91.40
2023-04-24T03:52:07.481Z,91.00
2023-04-24T03:54:34.212Z,90.10
2023-04-24T03:57:01.145Z,90.00
2023-04-24T03:59:28.077Z,90.50
2023-04-24T04:01:54.747Z,90.30
2023-04-24T04:04:21.518Z,90.50
2023-04-24T04:06:48.351Z,90.50
2023-04-24T04:09:15.163Z,90.30
2023-04-24T04:11:41.775Z,90.50
2023-04-24T04:14:08.398Z,90.70
2023-04-24T04:16:35.109Z,91.00
2023-04-24T04:19:01.848Z,91.30
2023-04-24T04:21:28.898Z,92.70
2023-04-24T04:23:55.514Z,94.00
2023-04-24T04:26:22.198Z,95.10
2023-04-24T04:28:49.906Z,96.40
2023-04-24T04:31:16.640Z,96.10
2023-04-24T04:33:43.291Z,95.60
2023-04-24T04:36:10.499Z,95.50
2023-04-24T04:38:38.273Z,96.00
2023-04-24T04:41:05.378Z,96.30
2023-04-24T04:43:33.544Z,96.50
2023-04-24T04:46:01.649Z,96.50
2023-04-24T04:48:29.658Z,96.40
2023-04-24T04:50:56.298Z,96.50
2023-04-24T04:53:22.894Z,96.50
2023-04-24T04:55:49.661Z,96.50
2023-04-24T04:58:16.387Z,95.40
2023-04-24T05:00:43.410Z,95.40
2023-04-24T05:03:20.787Z,95.60
2023-04-24T05:05:48.368Z,94.60
2023-04-24T05:10:44.639Z,94.90
2023-04-24T05:13:14.050Z,94.10
2023-04-24T05:15:41.005Z,93.60
2023-04-24T05:18:07.978Z,93.60
2023-04-24T05:20:34.698Z,93.30
2023-04-24T05:23:01.448Z,93.40
2023-04-24T05:25:28.065Z,93.50
2023-04-24T05:27:55.035Z,92.70
2023-04-24T05:30:21.752Z,91.90
2023-04-24T05:32:48.356Z,91.80
2023-04-24T05:35:15.253Z,92.30
2023-04-24T05:37:41.944Z,92.60
2023-04-24T05:40:09.870Z,94.20
2023-04-24T05:42:36.498Z,95.00
2023-04-24T05:45:03.599Z,91.50
2023-04-24T05:47:30.248Z,89.00
2023-04-24T05:49:56.953Z,87.00
2023-04-24T05:52:23.565Z,82.10
2023-04-24T05:54:50.282Z,81.30
2023-04-24T05:57:16.921Z,83.10
2023-04-24T05:59:43.853Z,82.30
2023-04-24T06:02:11.136Z,82.60
2023-04-24T06:04:38.168Z,79.80
2023-04-24T06:07:05.001Z,77.20
2023-04-24T06:09:31.732Z,76.60
2023-04-24T06:11:59.350Z,77.10
2023-04-24T06:14:25.982Z,73.40
2023-04-24T06:16:58.868Z,71.00
2023-04-24T06:19:25.622Z,67.00
2023-04-24T06:21:52.247Z,66.20
2023-04-24T06:24:18.872Z,64.10
2023-04-24T06:26:45.557Z,61.00
2023-04-24T06:29:12.289Z,61.10
2023-04-24T06:31:38.986Z,61.50
2023-04-24T06:34:05.957Z,57.70
2023-04-24T06:36:35.417Z,53.30
2023-04-24T06:39:02.768Z,55.30
2023-04-24T06:41:30.213Z,53.90
2023-04-24T06:43:56.960Z,48.70
2023-04-24T06:46:26.825Z,49.70
2023-04-24T06:48:57.571Z,52.60
2023-04-24T06:51:25.018Z,50.00
2023-04-24T06:53:53.015Z,49.30
2023-04-24T06:56:20.215Z,46.70
2023-04-24T06:58:47.551Z,49.30
2023-04-24T07:01:14.277Z,50.80
2023-04-24T07:03:41.143Z,52.40
2023-04-24T07:06:08.018Z,54.20
2023-04-24T07:08:34.847Z,56.40
2023-04-24T07:11:01.522Z,57.70
2023-04-24T07:13:28.219Z,58.80
2023-04-24T07:15:56.099Z,56.60
2023-04-24T07:18:23.172Z,57.40
2023-04-24T07:20:52.881Z,57.20
2023-04-24T07:23:21.226Z,57.30
2023-04-24T07:25:47.899Z,59.10
2023-04-24T07:28:14.582Z,59.00
2023-04-24T07:30:41.168Z,55.50
2023-04-24T07:33:08.027Z,51.30
2023-04-24T07:35:35.625Z,47.60
2023-04-24T07:38:02.257Z,42.80
2023-04-24T07:40:28.918Z,43.90
2023-04-24T07:42:55.514Z,42.90
2023-04-24T07:45:23.929Z,47.10
2023-04-24T07:47:51.806Z,39.80
2023-04-24T07:50:18.717Z,38.80
2023-04-24T07:52:45.547Z,37.50
2023-04-24T07:55:12.149Z,38.60
2023-04-24T07:57:38.902Z,38.10
2023-04-24T08:00:07.126Z,40.00
2023-04-24T08:02:34.846Z,38.80
2023-04-24T08:05:01.778Z,42.90
2023-04-24T08:07:28.502Z,43.20
2023-04-24T08:09:55.562Z,46.30
2023-04-24T08:12:22.260Z,45.10
2023-04-24T08:14:48.894Z,48.90
2023-04-24T08:17:15.710Z,46.70
2023-04-24T08:19:48.519Z,47.50
2023-04-24T08:22:18.536Z,49.40
2023-04-24T08:24:45.148Z,48.10
2023-04-24T08:27:11.900Z,49.50
2023-04-24T08:29:38.696Z,49.00
2023-04-24T08:32:05.668Z,43.40
2023-04-24T08:34:32.348Z,43.50
2023-04-24T08:36:59.080Z,42.90
2023-04-24T08:39:25.837Z,41.60
2023-04-24T08:41:56.813Z,42.80
2023-04-24T08:44:23.546Z,44.50
2023-04-24T08:46:50.504Z,45.40
2023-04-24T08:49:17.534Z,47.20
2023-04-24T08:51:45.534Z,44.70
2023-04-24T08:54:13.322Z,45.60
2023-04-24T08:56:41.259Z,44.70
2023-04-24T08:59:08.191Z,45.70
2023-04-24T09:01:38.330Z,45.60
2023-04-24T09:04:05.287Z,45.60
2023-04-24T09:06:33.157Z,44.50
2023-04-24T09:09:04.329Z,45.00
2023-04-24T09:11:33.558Z,44.50
2023-04-24T09:14:01.549Z,45.30
2023-04-24T09:16:28.889Z,45.10
2023-04-24T09:18:56.793Z,47.10
2023-04-24T09:21:24.194Z,45.20
2023-04-24T09:24:08.274Z,43.80
2023-04-24T09:26:38.185Z,45.00
2023-04-24T09:29:05.964Z,44.80
2023-04-24T09:31:32.772Z,44.50
2023-04-24T09:34:08.138Z,45.00
2023-04-24T09:36:41.763Z,46.30
2023-04-24T09:39:11.996Z,44.50
2023-04-24T09:41:57.653Z,39.40
2023-04-24T09:44:27.492Z,39.20
2023-04-24T09:46:58.957Z,40.10
2023-04-24T09:49:30.340Z,42.50
2023-04-24T09:52:11.662Z,43.70
2023-04-24T09:54:39.457Z,42.70
2023-04-24T09:57:08.892Z,42.50
2023-04-24T09:59:37.344Z,44.70
2023-04-24T10:02:17.417Z,46.50
2023-04-24T10:04:56.815Z,44.10
2023-04-24T10:07:27.081Z,44.80
2023-04-24T10:09:54.257Z,43.50
2023-04-24T10:12:22.068Z,40.20
2023-04-24T10:14:49.445Z,41.60
2023-04-24T10:17:16.778Z,42.40
2023-04-24T10:19:44.757Z,41.90
2023-04-24T10:22:12.521Z,43.80
2023-04-24T10:24:40.284Z,44.50
2023-04-24T10:27:07.422Z,45.40
2023-04-24T10:29:36.802Z,44.40
2023-04-24T10:32:03.533Z,44.60
2023-04-24T10:34:30.434Z,48.30
2023-04-24T10:36:58.468Z,50.30
2023-04-24T10:39:27.716Z,50.80
2023-04-24T10:41:58.342Z,54.60
2023-04-24T10:44:25.461Z,59.40
2023-04-24T10:46:57.251Z,58.10
2023-04-24T10:49:32.444Z,56.40
2023-04-24T10:52:07.524Z,54.40
2023-04-24T10:54:41.307Z,54.30
2023-04-24T10:57:20.534Z,57.00
2023-04-24T10:59:52.994Z,59.50
2023-04-24T11:02:36.522Z,62.00
2023-04-24T11:05:07.182Z,66.70
2023-04-24T11:08:14.685Z,72.50
2023-04-24T11:11:18.354Z,74.90
2023-04-24T11:13:57.672Z,78.50
2023-04-24T11:16:24.401Z,75.70
2023-04-24T11:19:02.978Z,71.70
2023-04-24T11:21:55.023Z,74.60
2023-04-24T11:24:32.966Z,76.30
2023-04-24T11:27:05.464Z,68.60
2023-04-24T11:30:01.877Z,65.00
2023-04-24T11:32:38.393Z,62.60
2023-04-24T11:35:22.343Z,58.00
2023-04-24T11:40:24.125Z,61.90
2023-04-24T11:42:52.881Z,63.10
2023-04-24T11:45:25.196Z,60.30
2023-04-24T11:47:52.347Z,56.80
2023-04-24T11:50:20.857Z,59.40
2023-04-24T11:52:49.441Z,57.70
2023-04-24T11:55:16.103Z,54.80
2023-04-24T11:57:47.007Z,52.80
2023-04-24T12:00:19.934Z,53.80
2023-04-24T12:02:47.405Z,52.90
2023-04-24T12:05:25.992Z,54.30
2023-04-24T12:07:53.809Z,51.70
2023-04-24T12:10:28.787Z,51.80
2023-04-24T12:12:57.665Z,54.40
2023-04-24T12:15:25.417Z,54.70
2023-04-24T12:17:54.019Z,55.10
2023-04-24T12:20:30.003Z,54.50
2023-04-24T12:23:01.513Z,57.70
2023-04-24T12:25:35.545Z,54.10
2023-04-24T12:28:05.434Z,51.80
2023-04-24T12:30:34.483Z,50.90
2023-04-24T12:33:03.200Z,53.90
2023-04-24T12:35:32.787Z,53.80
2023-04-24T12:38:16.813Z,49.50
2023-04-24T12:40:44.520Z,50.60
2023-04-24T12:43:21.507Z,49.80
2023-04-24T12:45:49.322Z,51.60
2023-04-24T12:48:16.119Z,49.30
2023-04-24T12:50:46.135Z,49.70
2023-04-24T12:53:13.950Z,53.70
2023-04-24T12:55:41.210Z,54.80
2023-04-24T12:58:07.876Z,54.00
2023-04-24T13:00:34.830Z,55.30
2023-04-24T13:03:02.504Z,55.70
2023-04-24T13:05:29.283Z,50.70
2023-04-24T13:07:56.010Z,51.50
2023-04-24T13:10:22.740Z,48.90
2023-04-24T13:12:49.818Z,49.60
2023-04-24T13:15:16.523Z,48.40
2023-04-24T13:17:43.281Z,48.40
2023-04-24T13:20:10.521Z,48.70
2023-04-24T13:22:37.727Z,47.30
2023-04-24T13:25:07.241Z,45.90
2023-04-24T13:27:34.407Z,44.80
2023-04-24T13:30:01.214Z,42.30
2023-04-24T13:32:29.431Z,44.00
2023-04-24T13:34:57.520Z,45.40
2023-04-24T13:37:24.248Z,45.70
2023-04-24T13:39:52.271Z,46.60
2023-04-24T13:42:19.845Z,45.40
2023-04-24T13:44:46.560Z,46.60
2023-04-24T13:47:13.229Z,46.50
2023-04-24T13:49:39.958Z,48.70
2023-04-24T13:52:06.667Z,46.30
2023-04-24T13:54:33.754Z,46.80
2023-04-24T13:57:01.491Z,46.10
2023-04-24T13:59:28.203Z,46.20
2023-04-24T14:01:55.738Z,47.60
2023-04-24T14:04:22.701Z,48.60
2023-04-24T14:06:49.570Z,50.30
2023-04-24T14:09:16.324Z,49.80
2023-04-24T14:11:43.189Z,49.20
2023-04-24T14:14:09.863Z,51.90
2023-04-24T14:16:36.796Z,51.90
2023-04-24T14:19:03.549Z,54.60
2023-04-24T14:21:31.122Z,55.30
2023-04-24T14:23:57.756Z,55.90
2023-04-24T14:26:25.554Z,55.20
2023-04-24T14:28:55.791Z,54.80
2023-04-24T14:31:24.781Z,55.40
2023-04-24T14:33:51.522Z,53.80
2023-04-24T14:36:18.567Z,52.00
2023-04-24T14:38:45.527Z,50.60
2023-04-24T14:41:14.241Z,52.10
2023-04-24T14:43:41.416Z,51.90
2023-04-24T14:46:08.256Z,48.00
2023-04-24T14:48:34.947Z,48.40
2023-04-24T14:51:01.633Z,45.80
2023-04-24T14:53:28.281Z,45.80
2023-04-24T14:55:55.013Z,46.50
2023-04-24T14:58:21.909Z,45.00
2023-04-24T15:00:50.887Z,43.80
2023-04-24T15:03:18.605Z,41.10
2023-04-24T15:05:45.855Z,43.00
2023-04-24T15:08:12.765Z,42.20
2023-04-24T15:10:39.706Z,44.40
2023-04-24T15:13:06.370Z,42.70
2023-04-24T15:15:33.040Z,39.60
2023-04-24T15:17:59.794Z,36.40
2023-04-24T15:20:26.453Z,37.30
2023-04-24T15:22:53.177Z,38.90
2023-04-24T15:25:19.812Z,37.30
2023-04-24T15:27:47.012Z,38.40
2023-04-24T15:30:14.402Z,39.30
2023-04-24T15:32:41.306Z,41.30
2023-04-24T15:35:09.666Z,46.00
2023-04-24T15:37:38.013Z,51.00
2023-04-24T15:40:07.672Z,47.60
2023-04-24T15:42:34.411Z,45.10
2023-04-24T15:45:01.182Z,43.50
2023-04-24T15:47:27.987Z,41.90
2023-04-24T15:49:54.691Z,40.90
2023-04-24T15:52:21.796Z,39.60
2023-04-24T15:54:48.827Z,40.30
2023-04-24T15:57:15.716Z,40.80
2023-04-24T15:59:42.601Z,40.40
2023-04-24T16:02:19.194Z,38.90
2023-04-24T16:04:51.392Z,39.50
2023-04-24T16:07:18.308Z,39.50
2023-04-24T16:09:45.202Z,39.60
2023-04-24T16:12:12.412Z,39.00
2023-04-24T16:14:39.440Z,38.30
2023-04-24T16:17:06.752Z,38.80
2023-04-24T16:19:34.520Z,38.50
2023-04-24T16:22:01.488Z,39.20
2023-04-24T16:24:28.835Z,39.50
2023-04-24T16:26:56.123Z,39.80
2023-04-24T16:29:22.904Z,39.70
2023-04-24T16:31:49.668Z,38.90
2023-04-24T16:34:16.503Z,39.00
2023-04-24T16:36:43.459Z,39.40
2023-04-24T16:39:10.156Z,40.40
2023-04-24T16:41:41.177Z,41.10
2023-04-24T16:44:07.949Z,40.30
2023-04-24T16:46:35.229Z,39.30
2023-04-24T16:49:01.985Z,40.40
2023-04-24T16:51:28.988Z,37.90
2023-04-24T16:53:56.838Z,37.40
2023-04-24T16:56:23.517Z,39.00
2023-04-24T16:58:51.273Z,37.90
2023-04-24T17:01:18.292Z,38.90
2023-04-24T17:03:45.404Z,38.60
2023-04-24T17:06:12.651Z,38.60
2023-04-24T17:08:39.370Z,38.60
2023-04-24T17:11:06.173Z,38.00
2023-04-24T17:13:36.234Z,39.10
2023-04-24T17:16:02.955Z,39.00
2023-04-24T17:18:29.687Z,39.10
2023-04-24T17:20:56.349Z,37.50
2023-04-24T17:23:23.022Z,38.20
2023-04-24T17:25:50.267Z,38.20
2023-04-24T17:28:29.331Z,38.60
2023-04-24T17:30:58.393Z,38.40
2023-04-24T17:33:29.792Z,38.80
2023-04-24T17:35:58.072Z,39.70
2023-04-24T17:38:25.174Z,39.20
2023-04-24T17:40:54.952Z,39.80
2023-04-24T17:43:22.439Z,40.30
2023-04-24T17:45:53.329Z,41.40
2023-04-24T17:48:20.224Z,40.00
2023-04-24T17:50:46.856Z,39.80
2023-04-24T17:53:13.757Z,39.40
2023-04-24T17:55:41.982Z,40.00
2023-04-24T17:58:08.906Z,39.30
2023-04-24T18:00:36.413Z,39.90
2023-04-24T18:03:04.147Z,40.40
2023-04-24T18:05:32.275Z,41.30
2023-04-24T18:07:59.291Z,42.30
2023-04-24T18:10:26.598Z,42.10
2023-04-24T18:12:53.438Z,41.80
2023-04-24T18:15:20.431Z,41.60
2023-04-24T18:17:47.468Z,41.30
2023-04-24T18:20:16.136Z,43.00
2023-04-24T18:22:43.287Z,42.10
2023-04-24T18:25:10.895Z,44.00
2023-04-24T18:27:38.657Z,43.50
2023-04-24T18:30:06.840Z,45.30
2023-04-24T18:32:34.109Z,46.80
2023-04-24T18:35:00.939Z,47.30
2023-04-24T18:37:27.644Z,49.30
2023-04-24T18:39:56.101Z,49.00
2023-04-24T18:42:23.060Z,50.70
2023-04-24T18:44:50.209Z,50.60
2023-04-24T18:47:16.818Z,51.40
2023-04-24T18:49:43.652Z,51.40
2023-04-24T18:52:10.411Z,50.80
2023-04-24T18:54:37.106Z,51.20
2023-04-24T18:57:03.809Z,51.60
2023-04-24T18:59:30.448Z,52.10
2023-04-24T19:01:57.735Z,51.70
2023-04-24T19:04:24.592Z,51.20
2023-04-24T19:06:51.253Z,51.70
2023-04-24T19:09:17.987Z,51.50
2023-04-24T19:11:44.898Z,51.70
2023-04-24T19:14:11.813Z,51.80
2023-04-24T19:16:38.565Z,52.20
2023-04-24T19:19:05.798Z,52.70
2023-04-24T19:21:33.532Z,53.70
2023-04-24T19:24:04.093Z,54.50
2023-04-24T19:26:31.472Z,54.70
2023-04-24T19:28:58.986Z,55.20
2023-04-24T19:31:26.474Z,54.90
2023-04-24T19:33:53.311Z,55.40
2023-04-24T19:36:20.238Z,55.90
2023-04-24T19:38:47.752Z,56.60
2023-04-24T19:41:14.587Z,58.80
2023-04-24T19:43:41.289Z,58.30
2023-04-24T19:46:08.272Z,58.40
2023-04-24T19:48:35.078Z,57.40
2023-04-24T19:51:02.786Z,57.60
2023-04-24T19:53:30.302Z,57.40
2023-04-24T19:55:57.393Z,57.60
2023-04-24T19:58:24.313Z,56.90
2023-04-24T20:00:51.320Z,56.80
2023-04-24T20:03:31.261Z,57.00
2023-04-24T20:05:58.485Z,56.60
2023-04-24T20:08:25.144Z,55.70
2023-04-24T20:10:52.639Z,56.20
2023-04-24T20:13:19.462Z,56.20
2023-04-24T20:15:46.151Z,56.30
2023-04-24T20:18:13.451Z,55.70
2023-04-24T20:20:41.582Z,56.10
2023-04-24T20:23:08.407Z,55.80
2023-04-24T20:25:36.102Z,56.90
2023-04-24T20:28:03.349Z,57.30
2023-04-24T20:30:31.508Z,57.30
2023-04-24T20:32:58.996Z,57.20
2023-04-24T20:35:25.760Z,57.70
2023-04-24T20:37:53.799Z,57.60
2023-04-24T20:40:20.707Z,57.70
2023-04-24T20:42:47.432Z,58.10
2023-04-24T20:45:14.232Z,58.20
2023-04-24T20:47:41.056Z,57.90
2023-04-24T20:50:08.352Z,57.90
2023-04-24T20:52:35.154Z,57.60
2023-04-24T20:55:02.026Z,57.70
2023-04-24T20:57:28.959Z,57.80
2023-04-24T20:59:55.758Z,58.00
2023-04-24T21:02:22.503Z,58.00
2023-04-24T21:04:49.301Z,58.20
2023-04-24T21:07:16.332Z,58.80
2023-04-24T21:09:42.990Z,59.00
2023-04-24T21:12:09.699Z,60.00
2023-04-24T21:14:36.490Z,59.80
2023-04-24T21:17:03.277Z,60.10
2023-04-24T21:19:30.103Z,60.50
2023-04-24T21:21:56.768Z,60.80
2023-04-24T21:24:23.445Z,61.00
2023-04-24T21:26:50.472Z,60.90
2023-04-24T21:29:17.585Z,61.70
2023-04-24T21:31:44.695Z,61.80
2023-04-24T21:34:11.662Z,62.00
2023-04-24T21:36:38.354Z,62.50
2023-04-24T21:39:05.046Z,62.60
2023-04-24T21:41:31.694Z,63.30
2023-04-24T21:43:59.254Z,63.30
2023-04-24T21:46:26.560Z,63.90
2023-04-24T21:48:53.338Z,64.60
2023-04-24T21:51:20.370Z,66.90
2023-04-24T21:53:47.366Z,67.50
2023-04-24T21:56:14.449Z,67.90
2023-04-24T21:58:41.593Z,68.60
2023-04-24T22:01:08.980Z,69.20
2023-04-24T22:03:35.792Z,69.20
2023-04-24T22:06:02.699Z,69.40
2023-04-24T22:08:29.341Z,69.80
2023-04-24T22:10:56.789Z,69.70
2023-04-24T22:13:23.474Z,70.30
2023-04-24T22:15:51.014Z,70.60
2023-04-24T22:18:18.714Z,70.80
2023-04-24T22:20:46.490Z,71.50
2023-04-24T22:23:13.337Z,71.70
2023-04-24T22:25:40.126Z,72.00
2023-04-24T22:28:06.860Z,72.80
2023-04-24T22:30:33.650Z,73.30
2023-04-24T22:33:00.516Z,74.00
2023-04-24T22:35:27.216Z,74.30
2023-04-24T22:37:57.990Z,74.90
2023-04-24T22:40:25.575Z,75.40
2023-04-24T22:42:52.700Z,75.80
2023-04-24T22:45:22.309Z,77.60
2023-04-24T22:47:50.182Z,77.60
2023-04-24T22:50:17.484Z,77.50
2023-04-24T22:52:44.163Z,77.70
2023-04-24T22:55:11.052Z,77.90
2023-04-24T22:57:37.813Z,78.50
2023-04-24T23:00:10.860Z,78.80
2023-04-24T23:02:41.115Z,79.30
2023-04-24T23:05:09.235Z,79.40
2023-04-24T23:07:37.384Z,80.10
2023-04-24T23:10:07.550Z,80.10
2023-04-24T23:12:34.273Z,80.60
2023-04-24T23:15:01.287Z,80.60
2023-04-24T23:17:27.940Z,81.40
2023-04-24T23:19:54.622Z,82.80
2023-04-24T23:22:21.299Z,82.30
2023-04-24T23:24:47.998Z,82.20
2023-04-24T23:27:14.736Z,82.10
2023-04-24T23:29:41.396Z,82.70
2023-04-24T23:32:08.083Z,83.30
2023-04-24T23:34:34.788Z,82.70
2023-04-24T23:37:01.509Z,82.80
2023-04-24T23:39:28.216Z,83.10
2023-04-24T23:41:56.064Z,82.80
2023-04-24T23:44:22.695Z,82.90
2023-04-24T23:46:49.317Z,83.10
2023-04-24T23:49:16.003Z,83.10
2023-04-24T23:51:43.140Z,83.20
2023-04-24T23:54:09.778Z,83.40
2023-04-24T23:56:36.718Z,84.00
2023-04-24T23:59:03.501Z,84.00
